createdAt,value
2017-09-10T00:00:23.648Z,13.30
2017-09-10T00:02:51.204Z,13.30
2017-09-10T00:05:18.637Z,13.30
2017-09-10T00:07:46.157Z,13.30
2017-09-10T00:10:13.569Z,13.20
2017-09-10T00:12:41.005Z,13.20
2017-09-10T00:15:08.458Z,13.20
2017-09-10T00:17:35.889Z,13.30
2017-09-10T00:20:04.112Z,13.20
2017-09-10T00:22:31.671Z,13.20
2017-09-10T00:24:59.130Z,13.10
2017-09-10T00:27:26.590Z,13.20
2017-09-10T00:29:54.042Z,13.10
2017-09-10T00:32:21.468Z,13.00
2017-09-10T00:34:48.904Z,13.00
2017-09-10T00:37:17.132Z,13.00
2017-09-10T00:39:44.568Z,13.00
2017-09-10T00:42:11.993Z,12.80
2017-09-10T00:44:40.199Z,12.90
2017-09-10T00:47:07.676Z,12.90
2017-09-10T00:49:35.124Z,12.90
2017-09-10T00:52:02.540Z,12.90
2017-09-10T00:54:30.058Z,13.00
2017-09-10T00:56:57.503Z,13.00
2017-09-10T00:59:24.962Z,13.00
2017-09-10T01:01:52.385Z,13.00
2017-09-10T01:04:19.837Z,12.90
2017-09-10T01:06:47.289Z,12.90
2017-09-10T01:09:15.477Z,12.90
2017-09-10T01:11:42.969Z,12.90
2017-09-10T01:14:10.410Z,12.90
2017-09-10T01:16:37.880Z,12.80
2017-09-10T01:19:24.462Z,12.70
2017-09-10T01:21:53.467Z,12.70
2017-09-10T01:24:21.038Z,12.70
2017-09-10T01:26:48.458Z,12.60
2017-09-10T01:29:15.927Z,12.70
2017-09-10T01:31:43.415Z,12.70
2017-09-10T01:34:10.867Z,12.60
2017-09-10T01:36:38.400Z,12.60
2017-09-10T01:39:05.847Z,12.60
2017-09-10T01:41:33.328Z,12.60
2017-09-10T01:44:00.750Z,12.50
2017-09-10T01:46:28.174Z,12.50
2017-09-10T01:48:56.381Z,12.60
2017-09-10T01:51:23.800Z,12.60
2017-09-10T01:53:51.243Z,12.60
2017-09-10T01:56:18.714Z,12.50
2017-09-10T01:58:46.225Z,12.60
2017-09-10T02:01:13.655Z,12.70
2017-09-10T02:03:41.094Z,12.60
2017-09-10T02:06:08.588Z,12.60
2017-09-10T02:08:36.038Z,12.50
2017-09-10T02:11:03.590Z,12.50
2017-09-10T02:13:31.016Z,12.50
2017-09-10T02:15:59.233Z,12.60
2017-09-10T02:18:26.677Z,12.50
2017-09-10T02:20:54.124Z,12.60
2017-09-10T02:23:22.350Z,12.50
2017-09-10T02:25:49.772Z,12.50
2017-09-10T02:28:17.222Z,12.40
2017-09-10T02:30:45.437Z,12.30
2017-09-10T02:33:12.869Z,12.30
2017-09-10T02:35:40.302Z,12.20
2017-09-10T02:38:07.760Z,12.30
2017-09-10T02:40:35.266Z,12.30
2017-09-10T02:43:02.725Z,12.20
2017-09-10T02:45:30.160Z,12.20
2017-09-10T02:47:57.634Z,12.20
2017-09-10T02:50:25.117Z,12.20
2017-09-10T02:52:53.328Z,12.10
2017-09-10T02:55:20.768Z,12.10
2017-09-10T02:57:48.970Z,12.10
2017-09-10T03:00:16.417Z,12.10
2017-09-10T03:02:43.852Z,12.10
2017-09-10T03:05:12.084Z,12.00
2017-09-10T03:07:39.531Z,12.00
2017-09-10T03:10:06.976Z,12.00
2017-09-10T03:12:34.432Z,12.10
2017-09-10T03:15:01.910Z,12.00
2017-09-10T03:17:29.344Z,12.10
2017-09-10T03:19:56.836Z,12.10
2017-09-10T03:22:25.028Z,11.90
2017-09-10T03:24:53.237Z,11.90
2017-09-10T03:27:20.674Z,11.80
2017-09-10T03:29:48.168Z,11.90
2017-09-10T03:32:15.612Z,11.90
2017-09-10T03:34:43.040Z,11.90
2017-09-10T03:37:10.497Z,11.90
2017-09-10T03:39:38.679Z,11.90
2017-09-10T03:42:06.120Z,11.80
2017-09-10T03:44:34.338Z,11.80
2017-09-10T03:47:01.761Z,11.80
2017-09-10T03:49:29.188Z,11.80
2017-09-10T03:51:57.389Z,11.70
2017-09-10T03:54:24.829Z,11.70
2017-09-10T03:56:53.033Z,11.70
2017-09-10T03:59:20.477Z,11.70
2017-09-10T04:01:47.913Z,11.70
2017-09-10T04:04:16.111Z,11.80
2017-09-10T04:06:43.560Z,11.80
2017-09-10T04:09:11.752Z,11.80
2017-09-10T04:11:39.194Z,11.80
2017-09-10T04:14:06.633Z,11.80
2017-09-10T04:16:34.834Z,11.70
2017-09-10T04:19:02.321Z,11.70
2017-09-10T04:21:29.752Z,11.70
2017-09-10T04:23:57.231Z,11.70
2017-09-10T04:26:24.683Z,11.70
2017-09-10T04:28:52.164Z,11.70
2017-09-10T04:31:19.606Z,11.60
2017-09-10T04:33:47.040Z,11.60
2017-09-10T04:36:14.513Z,11.70
2017-09-10T04:38:41.949Z,11.60
2017-09-10T04:41:09.380Z,11.60
2017-09-10T04:43:36.809Z,11.60
2017-09-10T04:46:05.013Z,11.50
2017-09-10T04:48:32.500Z,11.50
2017-09-10T04:51:00.056Z,11.50
2017-09-10T04:53:27.517Z,11.50
2017-09-10T04:55:54.960Z,11.40
2017-09-10T04:58:22.418Z,11.40
2017-09-10T05:00:49.902Z,11.40
2017-09-10T05:03:17.408Z,11.40
2017-09-10T05:05:44.848Z,11.50
2017-09-10T05:08:12.291Z,11.60
2017-09-10T05:10:40.496Z,11.60
2017-09-10T05:13:08.006Z,11.60
2017-09-10T05:15:35.546Z,11.60
2017-09-10T05:18:03.000Z,11.70
2017-09-10T05:20:30.440Z,11.70
2017-09-10T05:22:57.916Z,11.70
2017-09-10T05:25:25.344Z,11.70
2017-09-10T05:27:52.787Z,11.60
2017-09-10T05:30:20.279Z,11.60
2017-09-10T05:32:47.708Z,11.60
2017-09-10T05:35:15.194Z,11.60
2017-09-10T05:37:42.630Z,11.60
2017-09-10T05:40:10.072Z,11.70
2017-09-10T05:42:37.521Z,11.70
2017-09-10T05:45:05.709Z,11.80
2017-09-10T05:47:33.147Z,11.80
2017-09-10T05:50:01.344Z,11.90
2017-09-10T05:52:28.779Z,11.80
2017-09-10T05:54:56.272Z,11.90
2017-09-10T05:57:23.728Z,12.00
2017-09-10T05:59:51.172Z,11.90
2017-09-10T06:02:18.619Z,12.00
2017-09-10T06:04:46.821Z,11.90
2017-09-10T06:07:14.272Z,11.90
2017-09-10T06:09:41.740Z,12.00
2017-09-10T06:12:09.171Z,12.00
2017-09-10T06:14:36.645Z,12.00
2017-09-10T06:17:04.081Z,12.00
2017-09-10T06:19:31.556Z,12.00
2017-09-10T06:21:59.034Z,12.10
2017-09-10T06:24:26.471Z,12.00
2017-09-10T06:26:55.668Z,12.10
2017-09-10T06:29:23.871Z,12.00
2017-09-10T06:31:51.370Z,12.00
2017-09-10T06:34:18.826Z,12.10
2017-09-10T06:36:46.285Z,12.10
2017-09-10T06:39:14.546Z,12.30
2017-09-10T06:41:41.977Z,12.20
2017-09-10T06:44:09.412Z,12.30
2017-09-10T06:46:36.849Z,12.30
2017-09-10T06:49:04.287Z,12.40
2017-09-10T06:51:31.739Z,12.40
2017-09-10T06:53:59.959Z,12.50
2017-09-10T06:56:27.410Z,12.50
2017-09-10T06:58:54.845Z,12.60
2017-09-10T07:01:22.321Z,12.60
2017-09-10T07:03:49.745Z,12.60
2017-09-10T07:06:17.195Z,12.60
2017-09-10T07:08:45.389Z,12.80
2017-09-10T07:11:12.838Z,12.80
2017-09-10T07:13:40.280Z,12.80
2017-09-10T07:16:07.728Z,13.00
2017-09-10T07:18:35.165Z,13.00
2017-09-10T07:21:02.692Z,13.00
2017-09-10T07:23:30.160Z,13.10
2017-09-10T07:25:57.604Z,13.10
2017-09-10T07:28:25.060Z,13.20
2017-09-10T07:30:52.501Z,13.30
2017-09-10T07:33:19.962Z,13.30
2017-09-10T07:35:47.417Z,13.40
2017-09-10T07:38:14.869Z,13.40
2017-09-10T07:40:42.343Z,13.50
2017-09-10T07:43:09.785Z,13.60
2017-09-10T07:45:37.253Z,13.60
2017-09-10T07:48:04.696Z,13.70
2017-09-10T07:50:32.143Z,13.80
2017-09-10T07:52:59.582Z,13.90
2017-09-10T07:55:27.796Z,14.00
2017-09-10T07:57:55.258Z,14.00
2017-09-10T08:00:22.732Z,14.00
2017-09-10T08:02:50.170Z,14.10
2017-09-10T08:05:17.620Z,14.10
2017-09-10T08:07:45.079Z,14.10
2017-09-10T08:10:12.536Z,14.10
2017-09-10T08:12:39.962Z,14.30
2017-09-10T08:15:08.469Z,14.40
2017-09-10T08:17:35.898Z,14.40
2017-09-10T08:20:03.395Z,14.50
2017-09-10T08:22:30.831Z,14.60
2017-09-10T08:24:58.308Z,14.70
2017-09-10T08:27:25.843Z,14.80
2017-09-10T08:29:53.403Z,14.90
2017-09-10T08:32:20.867Z,15.00
2017-09-10T08:34:48.317Z,15.00
2017-09-10T08:37:15.784Z,15.10
2017-09-10T08:39:43.252Z,15.20
2017-09-10T08:42:10.707Z,15.30
2017-09-10T08:44:38.164Z,15.40
2017-09-10T08:47:05.600Z,15.50
2017-09-10T08:49:33.044Z,15.70
2017-09-10T08:52:01.016Z,15.80
2017-09-10T08:54:28.527Z,15.90
2017-09-10T08:56:56.177Z,16.00
2017-09-10T08:59:23.852Z,16.10
2017-09-10T09:01:51.391Z,16.30
2017-09-10T09:04:18.858Z,16.30
2017-09-10T09:06:46.326Z,16.40
2017-09-10T09:09:13.780Z,16.30
2017-09-10T09:11:41.241Z,16.30
2017-09-10T09:14:10.633Z,16.20
2017-09-10T09:16:38.379Z,16.30
2017-09-10T09:19:06.002Z,16.30
2017-09-10T09:21:38.199Z,16.50
2017-09-10T09:24:06.398Z,16.50
2017-09-10T09:26:34.031Z,16.50
2017-09-10T09:29:02.404Z,16.60
2017-09-10T09:31:29.875Z,16.60
2017-09-10T09:33:57.366Z,16.70
2017-09-10T09:36:24.882Z,16.90
2017-09-10T09:38:52.352Z,17.00
2017-09-10T09:41:19.814Z,17.20
2017-09-10T09:43:48.109Z,17.20
2017-09-10T09:46:16.344Z,17.00
2017-09-10T09:48:43.770Z,17.00
2017-09-10T09:51:11.229Z,16.90
2017-09-10T09:53:38.644Z,16.80
2017-09-10T09:56:06.071Z,16.90
2017-09-10T09:58:33.529Z,16.90
2017-09-10T10:01:00.975Z,16.80
2017-09-10T10:03:29.165Z,16.90
2017-09-10T10:05:56.644Z,16.90
2017-09-10T10:08:24.147Z,16.90
2017-09-10T10:10:51.661Z,16.90
2017-09-10T10:13:19.104Z,16.90
2017-09-10T10:15:47.309Z,17.10
2017-09-10T10:18:14.743Z,17.00
2017-09-10T10:20:42.183Z,16.90
2017-09-10T10:23:09.612Z,16.90
2017-09-10T10:25:50.944Z,17.20
2017-09-10T10:28:18.389Z,17.30
2017-09-10T10:30:45.833Z,17.50
2017-09-10T10:33:13.334Z,17.40
2017-09-10T10:35:41.563Z,17.70
2017-09-10T10:38:08.998Z,17.60
2017-09-10T10:40:36.417Z,18.10
2017-09-10T10:43:04.628Z,18.50
2017-09-10T10:45:32.114Z,18.40
2017-09-10T10:47:59.641Z,18.40
2017-09-10T10:50:27.085Z,18.50
2017-09-10T10:52:54.535Z,18.70
2017-09-10T10:55:21.947Z,18.60
2017-09-10T10:57:51.196Z,18.80
2017-09-10T11:00:18.625Z,18.80
2017-09-10T11:02:46.149Z,18.70
2017-09-10T11:05:13.569Z,18.70
2017-09-10T11:07:41.024Z,18.90
2017-09-10T11:10:08.450Z,18.70
2017-09-10T11:12:36.704Z,18.80
2017-09-10T11:15:05.626Z,18.80
2017-09-10T11:17:33.052Z,18.80
2017-09-10T11:20:01.304Z,19.20
2017-09-10T11:22:28.730Z,19.20
2017-09-10T11:24:56.168Z,19.30
2017-09-10T11:27:23.606Z,19.40
2017-09-10T11:29:51.046Z,19.70
2017-09-10T11:32:18.465Z,19.80
2017-09-10T11:34:46.690Z,20.10
2017-09-10T11:37:14.116Z,20.10
2017-09-10T11:39:43.212Z,20.80
2017-09-10T11:42:10.641Z,20.80
2017-09-10T11:44:38.073Z,21.50
2017-09-10T11:47:05.512Z,21.80
2017-09-10T11:49:32.960Z,22.00
2017-09-10T11:52:00.429Z,21.90
2017-09-10T11:54:27.854Z,21.30
2017-09-10T11:56:55.276Z,21.10
2017-09-10T11:59:24.219Z,19.90
2017-09-10T12:01:51.655Z,19.90
2017-09-10T12:04:19.135Z,19.70
2017-09-10T12:06:46.638Z,19.40
2017-09-10T12:09:14.065Z,19.40
2017-09-10T12:11:41.509Z,19.40
2017-09-10T12:14:08.972Z,19.30
2017-09-10T12:16:36.826Z,19.40
2017-09-10T12:19:04.236Z,19.40
2017-09-10T12:21:32.425Z,20.10
2017-09-10T12:23:59.861Z,20.10
2017-09-10T12:26:27.341Z,20.60
2017-09-10T12:28:54.772Z,20.80
2017-09-10T12:31:22.187Z,21.10
2017-09-10T12:33:49.604Z,22.50
2017-09-10T12:36:17.065Z,24.50
2017-09-10T12:38:44.561Z,25.80
2017-09-10T12:41:12.016Z,27.60
2017-09-10T12:43:39.470Z,27.60
2017-09-10T12:46:06.887Z,28.00
2017-09-10T12:48:34.471Z,26.70
2017-09-10T12:51:01.883Z,26.90
2017-09-10T12:53:29.323Z,27.30
2017-09-10T12:55:56.743Z,27.50
2017-09-10T12:58:24.176Z,27.00
2017-09-10T13:00:52.376Z,28.50
2017-09-10T13:03:19.805Z,28.50
2017-09-10T13:05:47.318Z,27.50
2017-09-10T13:08:14.772Z,25.80
2017-09-10T13:10:42.232Z,24.30
2017-09-10T13:13:09.695Z,25.00
2017-09-10T13:15:37.134Z,26.50
2017-09-10T13:18:04.570Z,27.10
2017-09-10T13:20:31.984Z,26.50
2017-09-10T13:22:59.503Z,26.90
2017-09-10T13:25:26.942Z,27.30
2017-09-10T13:27:54.378Z,28.70
2017-09-10T13:30:22.726Z,27.80
2017-09-10T13:32:50.200Z,27.80
2017-09-10T13:35:18.404Z,26.60
2017-09-10T13:37:45.838Z,26.60
2017-09-10T13:40:14.032Z,27.60
2017-09-10T13:42:41.448Z,27.60
2017-09-10T13:45:09.641Z,26.10
2017-09-10T13:47:37.077Z,26.00
2017-09-10T13:50:05.294Z,27.00
2017-09-10T13:52:32.765Z,27.00
2017-09-10T13:55:00.259Z,27.90
2017-09-10T13:57:27.697Z,27.50
2017-09-10T13:59:55.128Z,27.30
2017-09-10T14:02:22.617Z,28.00
2017-09-10T14:04:50.246Z,30.10
2017-09-10T14:07:17.685Z,30.00
2017-09-10T14:09:45.256Z,28.60
2017-09-10T14:12:12.815Z,26.00
2017-09-10T14:14:41.225Z,23.30
2017-09-10T14:17:08.684Z,23.30
2017-09-10T14:19:36.175Z,22.80
2017-09-10T14:22:03.605Z,23.40
2017-09-10T14:24:31.058Z,25.10
2017-09-10T14:26:58.464Z,26.40
2017-09-10T14:29:25.893Z,27.40
2017-09-10T14:31:53.352Z,27.80
2017-09-10T14:34:21.532Z,26.10
2017-09-10T14:36:48.975Z,26.00
2017-09-10T14:39:16.433Z,24.60
2017-09-10T14:41:44.099Z,24.10
2017-09-10T14:44:11.549Z,23.90
2017-09-10T14:46:39.010Z,25.70
2017-09-10T14:49:07.413Z,27.00
2017-09-10T14:51:34.857Z,28.00
2017-09-10T14:54:02.304Z,28.20
2017-09-10T14:56:29.858Z,27.80
2017-09-10T14:58:57.298Z,28.00
2017-09-10T15:01:25.302Z,27.50
2017-09-10T15:03:53.489Z,29.10
2017-09-10T15:06:20.934Z,29.10
2017-09-10T15:08:48.376Z,30.00
2017-09-10T15:11:16.782Z,29.60
2017-09-10T15:13:45.022Z,29.30
2017-09-10T15:16:12.464Z,29.10
2017-09-10T15:18:39.974Z,26.60
2017-09-10T15:21:07.425Z,25.30
2017-09-10T15:23:35.699Z,25.80
2017-09-10T15:26:03.209Z,25.80
2017-09-10T15:28:31.544Z,28.40
2017-09-10T15:30:59.001Z,28.40
2017-09-10T15:33:26.430Z,26.40
2017-09-10T15:35:54.639Z,27.70
2017-09-10T15:38:22.089Z,27.60
2017-09-10T15:40:49.567Z,28.20
2017-09-10T15:43:17.815Z,27.90
2017-09-10T15:45:45.268Z,27.90
2017-09-10T15:48:12.730Z,27.50
2017-09-10T15:50:40.982Z,23.80
2017-09-10T15:53:08.536Z,23.80
2017-09-10T15:55:35.990Z,22.80
2017-09-10T15:58:03.424Z,22.10
2017-09-10T16:00:30.851Z,21.50
2017-09-10T16:02:58.308Z,21.70
2017-09-10T16:05:25.765Z,21.90
2017-09-10T16:07:53.185Z,21.20
2017-09-10T16:10:20.660Z,20.60
2017-09-10T16:12:48.116Z,20.30
2017-09-10T16:15:15.548Z,20.20
2017-09-10T16:17:43.028Z,20.20
2017-09-10T16:20:10.489Z,19.80
2017-09-10T16:22:37.927Z,19.90
2017-09-10T16:25:05.524Z,19.80
2017-09-10T16:27:32.945Z,19.60
2017-09-10T16:30:00.420Z,19.50
2017-09-10T16:32:27.848Z,19.60
2017-09-10T16:34:55.308Z,19.50
2017-09-10T16:37:22.774Z,19.50
2017-09-10T16:39:50.252Z,20.10
2017-09-10T16:42:17.726Z,21.40
2017-09-10T16:44:45.144Z,22.00
2017-09-10T16:47:12.605Z,21.30
2017-09-10T16:49:40.072Z,20.70
2017-09-10T16:52:07.539Z,20.40
2017-09-10T16:54:34.990Z,20.60
2017-09-10T16:57:02.461Z,20.30
2017-09-10T16:59:29.888Z,19.90
2017-09-10T17:01:57.362Z,19.60
2017-09-10T17:04:24.833Z,19.30
2017-09-10T17:06:52.263Z,19.30
2017-09-10T17:09:19.721Z,19.20
2017-09-10T17:11:47.205Z,19.10
2017-09-10T17:14:14.620Z,19.00
2017-09-10T17:16:42.070Z,18.80
2017-09-10T17:19:09.477Z,18.60
2017-09-10T17:21:36.896Z,18.40
2017-09-10T17:24:05.180Z,18.20
2017-09-10T17:26:32.635Z,18.20
2017-09-10T17:29:00.073Z,18.10
2017-09-10T17:31:27.547Z,18.00
2017-09-10T17:33:54.983Z,17.90
2017-09-10T17:36:22.407Z,17.90
2017-09-10T17:38:50.588Z,17.80
2017-09-10T17:41:18.109Z,17.80
2017-09-10T17:43:45.549Z,17.70
2017-09-10T17:46:12.992Z,17.60
2017-09-10T17:48:40.416Z,17.40
2017-09-10T17:51:07.876Z,17.30
2017-09-10T17:53:35.325Z,17.20
2017-09-10T17:56:03.654Z,17.10
2017-09-10T17:58:31.099Z,17.10
2017-09-10T18:00:58.510Z,17.20
2017-09-10T18:03:26.724Z,17.00
2017-09-10T18:05:54.911Z,16.90
2017-09-10T18:08:23.161Z,16.80
2017-09-10T18:10:51.360Z,16.80
2017-09-10T18:13:18.815Z,16.80
2017-09-10T18:15:50.509Z,16.80
2017-09-10T18:18:18.005Z,16.70
2017-09-10T18:20:45.430Z,16.60
2017-09-10T18:23:12.902Z,16.50
2017-09-10T18:25:40.331Z,16.50
2017-09-10T18:28:09.723Z,16.40
2017-09-10T18:30:37.343Z,16.40
2017-09-10T18:33:07.198Z,16.30
2017-09-10T18:35:34.645Z,16.30
2017-09-10T18:38:04.654Z,16.20
2017-09-10T18:40:34.840Z,16.20
2017-09-10T18:43:02.268Z,16.20
2017-09-10T18:45:29.713Z,16.20
2017-09-10T18:47:57.146Z,16.10
2017-09-10T18:50:26.517Z,16.00
2017-09-10T18:52:54.621Z,16.00
2017-09-10T18:55:22.070Z,16.10
2017-09-10T18:57:49.532Z,16.10
2017-09-10T19:00:18.778Z,16.00
2017-09-10T19:02:47.727Z,15.80
2017-09-10T19:05:15.169Z,15.70
2017-09-10T19:07:44.483Z,15.70
2017-09-10T19:10:11.949Z,15.80
2017-09-10T19:12:41.179Z,15.50
2017-09-10T19:15:08.608Z,15.40
2017-09-10T19:17:36.046Z,15.50
2017-09-10T19:20:04.556Z,15.40
2017-09-10T19:22:32.718Z,15.40
2017-09-10T19:25:00.202Z,15.40
2017-09-10T19:27:28.868Z,15.40
2017-09-10T19:29:56.302Z,15.50
2017-09-10T19:32:24.775Z,15.50
2017-09-10T19:34:52.231Z,15.50
2017-09-10T19:37:19.670Z,15.50
2017-09-10T19:39:47.100Z,15.50
2017-09-10T19:42:14.577Z,15.50
2017-09-10T19:44:42.114Z,15.50
2017-09-10T19:47:12.063Z,15.40
2017-09-10T19:49:40.269Z,15.50
2017-09-10T19:52:07.919Z,15.50
2017-09-10T19:54:35.448Z,15.40
2017-09-10T19:57:03.670Z,15.50
2017-09-10T19:59:33.357Z,15.50
2017-09-10T20:02:00.875Z,15.60
2017-09-10T20:04:28.307Z,15.50
2017-09-10T20:06:55.801Z,15.40
2017-09-10T20:09:24.025Z,15.40
2017-09-10T20:11:51.465Z,15.30
2017-09-10T20:14:18.916Z,15.30
2017-09-10T20:16:46.404Z,15.30
2017-09-10T20:19:13.849Z,15.20
2017-09-10T20:21:41.293Z,15.20
2017-09-10T20:24:10.712Z,15.20
2017-09-10T20:26:38.152Z,15.20
2017-09-10T20:29:07.613Z,15.20
2017-09-10T20:31:35.055Z,15.10
2017-09-10T20:34:03.282Z,15.00
2017-09-10T20:36:33.447Z,14.90
2017-09-10T20:39:01.802Z,14.90
2017-09-10T20:41:29.226Z,14.90
2017-09-10T20:43:58.469Z,14.90
2017-09-10T20:46:31.464Z,14.80
2017-09-10T20:48:58.897Z,14.80
2017-09-10T20:51:26.367Z,14.70
2017-09-10T20:53:54.582Z,14.70
2017-09-10T20:56:22.035Z,14.70
2017-09-10T20:58:51.305Z,14.60
2017-09-10T21:01:19.518Z,14.60
2017-09-10T21:03:48.790Z,14.60
2017-09-10T21:06:16.286Z,14.60
2017-09-10T21:08:43.721Z,14.50
2017-09-10T21:11:11.148Z,14.50
2017-09-10T21:13:38.944Z,14.50
2017-09-10T21:16:07.182Z,14.40
2017-09-10T21:18:34.645Z,14.40
2017-09-10T21:21:02.078Z,14.30
2017-09-10T21:23:29.512Z,14.30
2017-09-10T21:25:57.710Z,14.30
2017-09-10T21:28:25.945Z,14.30
2017-09-10T21:30:53.367Z,14.30
2017-09-10T21:33:21.567Z,14.20
2017-09-10T21:35:49.045Z,14.20
2017-09-10T21:38:17.301Z,14.20
2017-09-10T21:40:44.774Z,14.10
2017-09-10T21:43:12.198Z,14.20
2017-09-10T21:45:39.637Z,14.20
2017-09-10T21:48:07.052Z,14.20
2017-09-10T21:50:34.537Z,14.30
2017-09-10T21:53:02.732Z,14.20
2017-09-10T21:55:30.959Z,14.20
2017-09-10T21:57:58.388Z,14.20
2017-09-10T22:00:25.821Z,14.20
2017-09-10T22:02:54.020Z,14.20
2017-09-10T22:05:21.451Z,14.10
2017-09-10T22:07:49.644Z,14.20
2017-09-10T22:10:17.071Z,14.20
2017-09-10T22:12:45.260Z,14.20
2017-09-10T22:15:12.698Z,14.20
2017-09-10T22:17:40.963Z,14.20
2017-09-10T22:20:08.384Z,14.20
2017-09-10T22:22:35.857Z,14.30
2017-09-10T22:25:03.406Z,14.30
2017-09-10T22:27:30.833Z,14.30
2017-09-10T22:29:58.266Z,14.30
2017-09-10T22:32:25.772Z,14.30
2017-09-10T22:34:53.241Z,14.30
2017-09-10T22:37:20.682Z,14.30
2017-09-10T22:39:48.130Z,14.40
2017-09-10T22:42:15.578Z,14.30
2017-09-10T22:44:43.048Z,14.20
2017-09-10T22:47:10.472Z,14.30
2017-09-10T22:49:37.911Z,14.30
2017-09-10T22:52:05.340Z,14.40
2017-09-10T22:54:32.768Z,14.40
2017-09-10T22:57:00.321Z,14.30
2017-09-10T22:59:27.789Z,14.40
2017-09-10T23:01:55.245Z,14.40
2017-09-10T23:04:22.792Z,14.50
2017-09-10T23:06:50.314Z,14.40
2017-09-10T23:09:18.507Z,14.50
2017-09-10T23:11:45.975Z,14.50
2017-09-10T23:14:13.402Z,14.50
2017-09-10T23:16:41.593Z,14.60
2017-09-10T23:19:09.042Z,14.60
2017-09-10T23:21:36.456Z,14.60
2017-09-10T23:24:04.017Z,14.60
2017-09-10T23:26:31.440Z,14.70
2017-09-10T23:28:58.917Z,14.70
2017-09-10T23:31:26.352Z,14.60
2017-09-10T23:33:53.833Z,14.70
2017-09-10T23:36:21.268Z,14.70
2017-09-10T23:38:48.717Z,14.70
2017-09-10T23:41:16.189Z,14.60
2017-09-10T23:43:43.644Z,14.60
2017-09-10T23:46:11.073Z,14.50
2017-09-10T23:48:38.557Z,14.60
2017-09-10T23:51:06.024Z,14.60
2017-09-10T23:53:33.460Z,14.60
2017-09-10T23:56:00.902Z,14.60
2017-09-10T23:58:28.304Z,14.60
